Time;durP1;ratioP1;P1;durP2;ratioP2;P2;SDS_P1;SDS_P2;PMS_P1;PMS_P2;Temp;Humidity;BMP_temperature;BMP_pressure;BME280_temperature;BME280_humidity;BME280_pressure;Samples;Min_cycle;Max_cycle;Signal;HPM_P1;HPM_P2
2022/01/19 00:02:17;;;;;;;12.17;9.87;;;2.90;99.90;;;;;;4974338;28;20205;-66
2022/01/19 00:04:42;;;;;;;15.20;8.87;;;2.90;99.90;;;;;;4974881;28;20815;-67
2022/01/19 00:07:08;;;;;;;12.30;9.80;;;2.90;99.90;;;;;;4974511;28;20173;-66
2022/01/19 00:09:33;;;;;;;9.53;8.40;;;2.80;99.90;;;;;;4974795;28;20186;-66
2022/01/19 00:11:59;;;;;;;12.03;9.57;;;2.90;99.90;;;;;;4974409;28;20728;-67
2022/01/19 00:14:24;;;;;;;11.00;9.80;;;2.80;99.90;;;;;;4974733;28;20188;-66
2022/01/19 00:16:50;;;;;;;11.40;8.80;;;2.70;99.90;;;;;;4974169;28;20243;-67
2022/01/19 00:19:15;;;;;;;9.97;8.97;;;2.70;99.90;;;;;;4974684;28;20645;-66
2022/01/19 00:21:41;;;;;;;12.53;9.80;;;2.60;99.90;;;;;;4974125;28;20200;-67
2022/01/19 00:24:06;;;;;;;13.27;10.47;;;2.60;99.90;;;;;;4974494;28;20175;-66
2022/01/19 00:26:32;;;;;;;12.80;10.67;;;2.50;99.90;;;;;;4974084;28;20696;-66
2022/01/19 00:28:59;;;;;;;11.30;8.70;;;2.50;99.90;;;;;;4974431;28;20180;-66
2022/01/19 00:31:24;;;;;;;12.47;9.50;;;2.50;99.90;;;;;;4974012;28;20278;-66
2022/01/19 00:33:50;;;;;;;12.40;10.67;;;2.40;99.90;;;;;;4974447;28;20534;-66
2022/01/19 00:36:15;;;;;;;13.97;9.80;;;2.40;99.90;;;;;;4973831;28;20618;-66
2022/01/19 00:38:41;;;;;;;13.40;9.60;;;2.30;99.90;;;;;;4974245;28;20224;-67
2022/01/19 00:41:06;;;;;;;11.83;10.60;;;2.30;99.90;;;;;;4973567;28;20200;-66
2022/01/19 00:43:35;;;;;;;14.03;11.13;;;2.30;99.90;;;;;;4974018;28;20203;-66
2022/01/19 00:46:01;;;;;;;13.13;9.90;;;2.30;99.90;;;;;;4973849;28;20179;-66
2022/01/19 00:48:27;;;;;;;13.30;10.27;;;2.30;99.90;;;;;;4974057;28;21125;-66
2022/01/19 00:50:53;;;;;;;10.60;9.50;;;2.20;99.90;;;;;;4974068;28;20204;-66
2022/01/19 00:53:19;;;;;;;13.77;10.00;;;2.20;99.90;;;;;;4973585;28;20451;-66
2022/01/19 00:55:44;;;;;;;16.13;10.40;;;2.20;99.90;;;;;;4973445;28;20255;-66
2022/01/19 00:58:10;;;;;;;16.93;11.53;;;2.10;99.90;;;;;;4973963;28;20210;-66
2022/01/19 01:00:35;;;;;;;11.67;9.87;;;2.10;99.90;;;;;;4973370;28;20196;-66
2022/01/19 01:03:02;;;;;;;15.50;10.53;;;2.00;99.90;;;;;;4973384;28;20187;-66
2022/01/19 01:05:29;;;;;;;11.93;9.43;;;2.00;99.90;;;;;;4973041;28;20185;-66
2022/01/19 01:07:54;;;;;;;13.93;10.83;;;2.00;99.90;;;;;;4973707;28;20447;-66
2022/01/19 01:10:20;;;;;;;14.57;9.87;;;2.00;99.90;;;;;;4973398;28;20836;-66
2022/01/19 01:12:50;;;;;;;10.73;9.63;;;2.00;99.90;;;;;;4973454;28;20169;-66
2022/01/19 01:20:30;;;;;;;12.33;10.23;;;1.90;99.90;;;;;;4973318;28;20992;-66
2022/01/19 01:22:56;;;;;;;12.80;10.20;;;1.90;99.90;;;;;;4973559;28;20812;-66
2022/01/19 01:25:22;;;;;;;12.80;10.43;;;1.90;99.90;;;;;;4972850;28;20431;-66
2022/01/19 01:27:48;;;;;;;14.77;13.13;;;1.80;99.90;;;;;;4973615;28;20271;-66
2022/01/19 01:30:14;;;;;;;14.57;10.23;;;1.80;99.90;;;;;;4973062;28;20530;-66
2022/01/19 01:32:39;;;;;;;15.10;11.30;;;1.80;99.90;;;;;;4973490;28;20183;-66
2022/01/19 01:35:06;;;;;;;16.90;12.00;;;1.70;99.90;;;;;;4972887;28;20219;-66
2022/01/19 01:37:31;;;;;;;13.47;11.80;;;1.80;99.90;;;;;;4973023;28;20304;-66
2022/01/19 01:39:57;;;;;;;15.37;11.10;;;1.70;99.90;;;;;;4972876;28;20539;-66
2022/01/19 01:42:24;;;;;;;15.90;12.67;;;1.70;99.90;;;;;;4973002;28;20215;-65
2022/01/19 01:44:52;;;;;;;13.13;11.00;;;1.70;99.90;;;;;;4972937;28;20606;-66
2022/01/19 01:47:19;;;;;;;16.87;12.30;;;1.70;99.90;;;;;;4972442;28;20440;-66
2022/01/19 01:54:57;;;;;;;16.77;12.70;;;1.70;99.90;;;;;;4972571;28;20497;-66
2022/01/19 01:57:22;;;;;;;17.13;13.53;;;1.70;99.90;;;;;;4972796;28;20820;-67
2022/01/19 01:59:48;;;;;;;14.93;12.30;;;1.70;99.90;;;;;;4972666;28;20204;-66
2022/01/19 02:02:14;;;;;;;17.73;13.47;;;1.80;99.90;;;;;;4973023;28;20208;-66
2022/01/19 02:04:41;;;;;;;16.63;12.57;;;1.90;99.90;;;;;;4972802;28;20819;-65
2022/01/19 02:09:47;;;;;;;17.50;11.20;;;1.80;99.90;;;;;;4958642;28;20435;-66
2022/01/19 02:23:25;;;;;;;18.60;11.30;;;1.90;99.90;;;;;;4972648;28;20485;-66
2022/01/19 02:25:52;;;;;;;15.73;14.13;;;1.80;99.90;;;;;;4972415;28;21020;-66
2022/01/19 02:41:37;;;;;;;19.47;12.00;;;1.50;99.90;;;;;;4972571;28;20551;-67
2022/01/19 02:44:04;;;;;;;15.90;11.73;;;1.40;99.90;;;;;;4972665;28;20435;-66
2022/01/19 02:49:17;;;;;;;14.80;11.23;;;1.40;99.90;;;;;;4972596;28;20443;-66
2022/01/19 02:51:45;;;;;;;18.37;11.93;;;1.30;99.90;;;;;;4971706;28;20455;-66
2022/01/19 02:54:12;;;;;;;16.50;11.97;;;1.30;99.90;;;;;;4972214;28;20860;-66
2022/01/19 02:56:39;;;;;;;14.20;11.00;;;1.30;99.90;;;;;;4969331;28;20472;-66
2022/01/19 02:59:19;;;;;;;17.63;11.83;;;1.20;99.90;;;;;;4972136;28;20451;-67
2022/01/19 03:09:46;;;;;;;17.03;11.37;;;1.00;99.90;;;;;;4976059;28;20444;-66
2022/01/19 03:12:12;;;;;;;16.53;12.97;;;1.00;99.90;;;;;;4975999;28;20490;-66
2022/01/19 03:14:39;;;;;;;13.33;11.70;;;0.90;99.90;;;;;;4975758;28;20454;-67
2022/01/19 03:17:06;;;;;;;16.40;12.33;;;0.90;99.90;;;;;;4975791;28;20808;-66
2022/01/19 03:19:32;;;;;;;13.40;10.87;;;1.00;99.90;;;;;;4975511;28;20466;-66
2022/01/19 03:21:58;;;;;;;17.80;11.90;;;1.10;99.90;;;;;;4974205;28;20456;-67
2022/01/19 03:24:24;;;;;;;16.10;11.00;;;1.10;99.90;;;;;;4975681;28;20438;-67
2022/01/19 03:26:50;;;;;;;13.97;11.27;;;1.00;99.90;;;;;;4975467;28;20185;-66
2022/01/19 03:29:16;;;;;;;18.93;11.93;;;1.00;99.90;;;;;;4975407;28;20466;-66
2022/01/19 03:31:41;;;;;;;13.80;11.10;;;1.10;99.90;;;;;;4975412;28;20208;-66
2022/01/19 03:34:07;;;;;;;14.30;10.73;;;1.10;99.90;;;;;;4975770;28;20183;-66
2022/01/19 03:36:34;;;;;;;16.00;11.90;;;1.00;99.90;;;;;;4975107;28;20200;-66
2022/01/19 03:39:00;;;;;;;17.23;11.00;;;1.00;99.90;;;;;;4975390;28;20201;-66
2022/01/19 03:41:25;;;;;;;13.87;10.33;;;1.00;99.90;;;;;;4975137;28;21066;-66
2022/01/19 03:43:51;;;;;;;21.67;11.00;;;0.90;99.90;;;;;;4975429;28;20595;-67
2022/01/19 03:46:17;;;;;;;16.57;10.80;;;0.90;99.90;;;;;;4975018;28;20195;-66
2022/01/19 03:51:11;;;;;;;17.47;13.20;;;0.90;99.90;;;;;;4975144;28;20494;-67
2022/01/19 03:53:38;;;;;;;14.77;11.77;;;0.90;99.90;;;;;;4975029;28;20891;-66
2022/01/19 03:56:04;;;;;;;14.70;10.77;;;0.90;99.90;;;;;;4974845;28;20439;-66
2022/01/19 03:58:30;;;;;;;16.87;11.03;;;0.90;99.90;;;;;;4975057;28;20495;-66
2022/01/19 04:00:58;;;;;;;19.70;11.70;;;0.90;99.90;;;;;;4975021;28;20478;-66
2022/01/19 04:03:51;;;;;;;15.97;11.80;;;0.90;99.90;;;;;;4975391;28;20187;-65
2022/01/19 04:06:20;;;;;;;11.67;9.90;;;0.90;99.90;;;;;;4974269;28;20455;-65
2022/01/19 04:08:46;;;;;;;17.40;10.43;;;0.90;99.90;;;;;;4974548;28;20926;-65
2022/01/19 04:11:13;;;;;;;13.63;9.97;;;0.80;99.90;;;;;;4963963;28;20474;-65
2022/01/19 04:14:21;;;;;;;17.13;12.03;;;0.80;99.90;;;;;;4974552;28;20283;-65
2022/01/19 04:16:31;;;;;;;21.17;11.30;;;0.80;99.90;;;;;;4973509;28;20538;-65
2022/01/19 04:19:11;;;;;;;17.83;11.70;;;0.80;99.90;;;;;;4974729;28;20474;-65
2022/01/19 04:21:37;;;;;;;16.83;12.20;;;0.80;99.90;;;;;;4974743;28;20514;-65
2022/01/19 04:24:03;;;;;;;17.40;11.63;;;0.80;99.90;;;;;;4974501;28;20904;-65
2022/01/19 04:26:28;;;;;;;14.93;11.37;;;0.80;99.90;;;;;;4974156;28;20184;-65
2022/01/19 04:28:54;;;;;;;16.87;11.33;;;0.80;99.90;;;;;;4974447;28;20238;-65
2022/01/19 04:31:19;;;;;;;22.50;12.53;;;0.80;99.90;;;;;;4974601;28;20208;-65
2022/01/19 04:33:45;;;;;;;17.53;13.13;;;0.80;99.90;;;;;;4974396;28;20633;-65
2022/01/19 04:36:28;;;;;;;16.37;11.27;;;0.80;99.90;;;;;;4974048;28;20243;-65
2022/01/19 04:44:29;;;;;;;19.90;10.97;;;0.70;99.90;;;;;;4974198;28;20446;-66
2022/01/19 04:47:47;;;;;;;15.27;11.80;;;0.60;99.90;;;;;;4974153;28;20440;-65
2022/01/19 05:04:00;;;;;;;12.77;11.03;;;0.60;99.90;;;;;;4966408;28;20477;-65
2022/01/19 05:06:26;;;;;;;21.60;12.37;;;0.50;99.90;;;;;;4973502;28;20462;-65
2022/01/19 05:08:58;;;;;;;15.80;11.40;;;0.40;99.90;;;;;;4973385;28;20475;-65
2022/01/19 05:14:08;;;;;;;14.70;12.13;;;0.40;99.90;;;;;;4973435;28;20450;-65
2022/01/19 05:16:34;;;;;;;18.33;11.37;;;0.50;99.90;;;;;;4973417;28;20431;-66
2022/01/19 05:18:59;;;;;;;15.77;12.30;;;0.40;99.90;;;;;;4973142;28;20196;-65
2022/01/19 05:21:25;;;;;;;15.80;10.40;;;0.40;99.90;;;;;;4973241;28;20332;-66
2022/01/19 05:23:50;;;;;;;20.43;11.40;;;0.40;99.90;;;;;;4973324;28;20670;-66
2022/01/19 05:26:16;;;;;;;20.60;12.80;;;0.30;99.90;;;;;;4973119;28;20182;-65
2022/01/19 05:28:42;;;;;;;16.63;10.90;;;0.40;99.90;;;;;;4972266;28;20231;-65
2022/01/19 05:31:08;;;;;;;17.57;11.63;;;0.40;99.90;;;;;;4972948;28;20571;-65
2022/01/19 05:33:33;;;;;;;16.87;11.37;;;0.40;99.90;;;;;;4973103;28;20288;-65
2022/01/19 05:35:59;;;;;;;17.20;11.43;;;0.40;99.90;;;;;;4973254;28;20180;-66
2022/01/19 05:38:25;;;;;;;20.57;10.10;;;0.40;99.90;;;;;;4972731;28;20196;-65
2022/01/19 05:40:51;;;;;;;15.03;9.97;;;0.40;99.90;;;;;;4973100;28;20216;-65
2022/01/19 05:43:16;;;;;;;15.83;10.97;;;0.40;99.90;;;;;;4972712;28;20188;-65
2022/01/19 05:45:42;;;;;;;18.63;11.67;;;0.30;99.90;;;;;;4972924;28;20447;-66
2022/01/19 05:48:08;;;;;;;22.20;10.73;;;0.30;99.90;;;;;;4972721;28;20176;-65
2022/01/19 05:50:34;;;;;;;19.70;11.43;;;0.30;99.90;;;;;;4973140;28;20561;-65
2022/01/19 05:53:00;;;;;;;13.70;11.77;;;0.30;99.90;;;;;;4972926;28;20184;-65
2022/01/19 05:55:26;;;;;;;21.00;11.90;;;0.30;99.90;;;;;;4972342;28;20443;-65
2022/01/19 05:57:51;;;;;;;18.63;12.67;;;0.30;99.90;;;;;;4972909;28;20204;-66
2022/01/19 06:00:17;;;;;;;19.60;12.03;;;0.30;99.90;;;;;;4972118;28;20192;-65
2022/01/19 06:02:43;;;;;;;17.80;12.10;;;0.30;99.90;;;;;;4972512;28;20181;-66
2022/01/19 06:05:09;;;;;;;20.37;11.03;;;0.40;99.90;;;;;;4972783;28;20196;-65
2022/01/19 06:07:44;;;;;;;14.13;11.33;;;0.40;99.90;;;;;;4972381;28;20450;-65
2022/01/19 06:10:42;;;;;;;22.73;11.83;;;0.50;99.90;;;;;;4972418;28;20230;-66
2022/01/19 06:12:57;;;;;;;16.93;11.47;;;0.50;99.90;;;;;;4972685;28;20498;-66
2022/01/19 06:15:23;;;;;;;13.80;12.10;;;0.60;99.90;;;;;;4972439;28;20431;-65
2022/01/19 06:17:48;;;;;;;19.20;11.53;;;0.60;99.90;;;;;;4972938;28;20271;-65
2022/01/19 06:20:15;;;;;;;17.27;12.97;;;0.60;99.90;;;;;;4972410;28;20208;-65
2022/01/19 06:22:40;;;;;;;20.77;11.77;;;0.60;99.90;;;;;;4972974;28;20235;-65
2022/01/19 06:25:07;;;;;;;19.80;11.80;;;0.60;99.90;;;;;;4972734;28;20937;-65
2022/01/19 06:27:32;;;;;;;17.60;13.47;;;0.60;99.90;;;;;;4972834;28;20203;-65
2022/01/19 06:29:57;;;;;;;16.30;12.20;;;0.70;99.90;;;;;;4972852;28;20478;-66
2022/01/19 06:32:23;;;;;;;16.00;12.47;;;0.70;99.90;;;;;;4972546;28;20211;-65
2022/01/19 06:34:48;;;;;;;22.90;13.33;;;0.60;99.90;;;;;;4971891;28;20195;-66
2022/01/19 06:37:14;;;;;;;21.03;12.50;;;0.70;99.90;;;;;;4971124;28;20258;-65
2022/01/19 06:39:40;;;;;;;14.80;11.90;;;0.70;99.90;;;;;;4971340;28;20390;-65
2022/01/19 06:42:06;;;;;;;22.70;12.40;;;0.70;99.90;;;;;;4972351;28;20204;-65
2022/01/19 06:44:31;;;;;;;16.20;12.63;;;0.70;99.90;;;;;;4976296;28;20310;-65
2022/01/19 06:46:57;;;;;;;16.90;11.97;;;0.70;99.90;;;;;;4978388;28;20518;-65
2022/01/19 06:49:22;;;;;;;17.60;12.23;;;0.70;99.90;;;;;;4985420;28;20189;-65
2022/01/19 06:51:49;;;;;;;21.13;11.60;;;0.60;99.90;;;;;;4976104;28;20208;-65
2022/01/19 06:54:14;;;;;;;16.80;11.83;;;0.60;99.90;;;;;;4976258;28;20271;-65
2022/01/19 06:56:40;;;;;;;19.50;13.50;;;0.50;99.90;;;;;;4975988;28;20517;-65
2022/01/19 06:59:05;;;;;;;20.60;12.87;;;0.60;99.90;;;;;;4978198;28;20631;-65
2022/01/19 07:01:33;;;;;;;18.73;14.00;;;0.60;99.90;;;;;;4975969;28;20208;-66
2022/01/19 07:04:00;;;;;;;17.00;11.83;;;0.60;99.90;;;;;;4976282;28;20179;-65
2022/01/19 07:06:25;;;;;;;19.97;12.67;;;0.60;99.90;;;;;;4975942;28;20438;-65
2022/01/19 07:08:51;;;;;;;20.20;13.43;;;0.60;99.90;;;;;;4976341;28;20427;-66
2022/01/19 07:11:16;;;;;;;19.93;12.53;;;0.50;99.90;;;;;;4976310;28;20216;-65
2022/01/19 07:13:42;;;;;;;21.93;15.37;;;0.50;99.90;;;;;;4975820;28;20570;-65
2022/01/19 07:16:07;;;;;;;20.40;14.13;;;0.50;99.90;;;;;;4975738;28;20263;-65
2022/01/19 07:18:33;;;;;;;29.60;18.20;;;0.50;99.90;;;;;;4975557;28;20200;-65
2022/01/19 07:20:59;;;;;;;21.13;14.50;;;0.50;99.90;;;;;;4974130;28;20200;-65
2022/01/19 07:23:24;;;;;;;19.37;15.00;;;0.50;99.90;;;;;;4975587;28;20589;-66
2022/01/19 07:25:50;;;;;;;22.17;15.63;;;0.50;99.90;;;;;;4975574;28;20207;-65
2022/01/19 07:28:16;;;;;;;20.10;13.63;;;0.60;99.90;;;;;;4975144;28;20226;-65
2022/01/19 07:30:41;;;;;;;26.10;17.57;;;0.60;99.90;;;;;;4974969;28;20203;-65
2022/01/19 07:33:07;;;;;;;24.60;16.13;;;0.60;99.90;;;;;;4975254;28;20218;-65
2022/01/19 07:35:33;;;;;;;23.13;14.23;;;0.60;99.90;;;;;;4971093;28;20177;-65
2022/01/19 07:37:58;;;;;;;21.43;14.17;;;0.70;99.90;;;;;;4972518;28;20185;-65
2022/01/19 07:40:24;;;;;;;20.70;15.40;;;0.70;99.90;;;;;;4973838;28;20204;-65
2022/01/19 07:42:50;;;;;;;21.93;16.03;;;0.70;99.90;;;;;;4975108;28;20235;-65
2022/01/19 07:45:15;;;;;;;20.60;13.83;;;0.70;99.90;;;;;;4975134;28;20192;-65
2022/01/19 07:47:41;;;;;;;21.83;15.40;;;0.70;99.90;;;;;;4974973;28;20470;-65
2022/01/19 07:50:07;;;;;;;18.67;14.83;;;0.80;99.90;;;;;;4975257;28;20181;-65
2022/01/19 07:52:33;;;;;;;25.80;15.47;;;1.10;99.90;;;;;;4973960;28;20659;-65
2022/01/19 07:54:59;;;;;;;26.37;14.70;;;1.70;99.90;;;;;;4975004;28;20526;-65
2022/01/19 07:57:25;;;;;;;17.70;13.80;;;2.30;99.90;;;;;;4975010;28;20191;-65
2022/01/19 07:59:51;;;;;;;19.13;13.90;;;2.60;99.90;;;;;;4973119;28;20463;-66
2022/01/19 08:02:16;;;;;;;23.10;13.90;;;3.00;99.90;;;;;;4974080;28;20212;-66
2022/01/19 08:04:42;;;;;;;23.90;14.20;;;3.30;99.90;;;;;;4960665;28;20188;-65
2022/01/19 08:07:08;;;;;;;16.50;12.73;;;3.60;99.90;;;;;;4945325;28;20235;-66
2022/01/19 08:09:35;;;;;;;19.27;13.60;;;4.40;99.90;;;;;;4969864;28;20180;-66
2022/01/19 08:12:01;;;;;;;16.43;13.37;;;4.70;99.90;;;;;;4974917;28;20228;-66
2022/01/19 08:14:26;;;;;;;16.73;12.90;;;5.00;99.90;;;;;;4968508;28;20838;-64
2022/01/19 08:16:56;;;;;;;16.93;11.87;;;5.50;99.90;;;;;;4973531;28;20271;-66
2022/01/19 08:19:22;;;;;;;15.73;13.07;;;5.80;99.90;;;;;;4974540;28;20212;-66
2022/01/19 08:21:48;;;;;;;17.30;14.07;;;6.00;99.90;;;;;;4971303;28;20465;-63
2022/01/19 08:24:14;;;;;;;16.90;13.93;;;6.40;99.90;;;;;;4970218;28;20444;-65
2022/01/19 08:26:40;;;;;;;14.63;13.23;;;6.50;99.90;;;;;;4967086;28;20255;-65
2022/01/19 08:29:06;;;;;;;20.93;15.53;;;7.50;99.90;;;;;;4973391;28;20579;-66
2022/01/19 08:31:32;;;;;;;14.57;13.03;;;8.70;99.90;;;;;;4974010;28;20464;-66
2022/01/19 08:33:58;;;;;;;16.63;14.07;;;9.60;99.90;;;;;;4974096;28;20187;-66
2022/01/19 08:36:24;;;;;;;17.60;13.70;;;10.60;99.90;;;;;;4973642;28;20454;-64
2022/01/19 08:38:50;;;;;;;16.33;14.50;;;11.50;99.90;;;;;;4970295;28;20469;-64
2022/01/19 08:41:15;;;;;;;14.77;13.23;;;12.00;99.90;;;;;;4976938;28;20232;-64
2022/01/19 08:43:41;;;;;;;14.53;13.10;;;12.60;98.20;;;;;;4973811;28;20180;-64
2022/01/19 08:46:06;;;;;;;15.50;13.23;;;12.90;97.30;;;;;;4972678;28;20235;-64
2022/01/19 08:48:32;;;;;;;16.20;14.43;;;13.50;95.00;;;;;;4974293;28;20184;-64
2022/01/19 08:50:58;;;;;;;15.20;13.80;;;13.50;94.40;;;;;;4973595;28;20246;-64
2022/01/19 08:53:23;;;;;;;17.50;15.80;;;13.00;93.00;;;;;;4973794;28;20188;-63
2022/01/19 08:55:49;;;;;;;16.83;15.27;;;13.20;93.40;;;;;;4972952;28;20180;-63
2022/01/19 08:58:15;;;;;;;16.17;14.57;;;13.70;93.20;;;;;;4973314;28;20195;-63
2022/01/19 09:00:42;;;;;;;15.97;13.23;;;14.00;92.40;;;;;;4973072;28;20471;-63
2022/01/19 09:03:08;;;;;;;15.20;13.70;;;14.80;91.00;;;;;;4972456;28;20450;-64
2022/01/19 09:05:33;;;;;;;16.60;14.90;;;14.60;89.90;;;;;;4966334;28;20840;-63
2022/01/19 09:08:00;;;;;;;15.60;14.30;;;15.00;87.40;;;;;;4967938;28;20196;-64
2022/01/19 09:10:25;;;;;;;16.33;14.83;;;15.30;86.10;;;;;;4961515;28;20188;-64
2022/01/19 09:12:51;;;;;;;15.40;14.00;;;16.00;82.60;;;;;;4966855;28;20462;-64
2022/01/19 09:15:18;;;;;;;14.50;13.10;;;16.20;78.40;;;;;;4969209;28;20192;-65
2022/01/19 09:17:44;;;;;;;15.53;14.23;;;15.90;78.70;;;;;;4970027;28;20219;-66
2022/01/19 09:20:11;;;;;;;16.37;14.87;;;15.90;77.70;;;;;;4970010;28;21225;-65
2022/01/19 09:22:38;;;;;;;15.20;13.90;;;15.40;76.20;;;;;;4970079;28;20440;-67
2022/01/19 09:25:06;;;;;;;15.30;13.97;;;15.30;76.40;;;;;;4967389;28;20439;-65
2022/01/19 09:27:33;;;;;;;13.80;12.67;;;15.40;77.10;;;;;;4969705;28;20502;-66
2022/01/19 09:29:59;;;;;;;14.90;13.43;;;16.00;76.40;;;;;;4966934;28;20458;-66
2022/01/19 09:32:25;;;;;;;14.23;12.93;;;17.10;72.90;;;;;;4969594;28;20862;-65
2022/01/19 09:34:56;;;;;;;14.80;13.50;;;17.90;69.90;;;;;;4969540;28;20755;-64
2022/01/19 09:37:23;;;;;;;14.80;13.50;;;18.50;65.30;;;;;;4968365;28;20451;-63
2022/01/19 09:39:48;;;;;;;21.03;19.23;;;18.80;63.40;;;;;;4969249;28;20460;-63
2022/01/19 09:42:14;;;;;;;13.60;12.37;;;18.90;61.70;;;;;;4969789;28;20538;-63
2022/01/19 09:44:40;;;;;;;13.67;12.57;;;17.60;62.90;;;;;;4969002;28;20183;-64
2022/01/19 09:47:05;;;;;;;13.70;12.50;;;18.50;60.80;;;;;;4968775;28;20195;-64
2022/01/19 09:49:31;;;;;;;15.87;14.37;;;17.30;61.10;;;;;;4969337;28;20443;-64
2022/01/19 09:51:57;;;;;;;15.60;14.20;;;17.70;61.80;;;;;;4969378;28;20238;-65
2022/01/19 09:54:26;;;;;;;15.20;14.00;;;18.40;59.70;;;;;;4969214;28;20188;-66
2022/01/19 09:56:52;;;;;;;12.33;11.23;;;18.60;58.30;;;;;;4968960;28;20534;-64
2022/01/19 09:59:20;;;;;;;13.63;12.23;;;18.90;57.80;;;;;;4969126;28;20550;-66
2022/01/19 10:02:03;;;;;;;12.87;11.77;;;18.30;58.20;;;;;;4969870;28;20537;-66
2022/01/19 10:04:31;;;;;;;12.73;11.73;;;19.30;57.60;;;;;;4965499;28;20514;-63
2022/01/19 10:07:19;;;;;;;12.90;11.90;;;19.10;56.80;;;;;;4968729;28;20845;-65
2022/01/19 10:09:59;;;;;;;17.67;15.60;;;18.80;56.00;;;;;;4963776;28;20510;-63
2022/01/19 10:18:13;;;;;;;13.47;12.10;;;17.20;57.00;;;;;;4967508;28;20466;-66
2022/01/19 10:20:38;;;;;;;12.37;11.30;;;17.80;57.60;;;;;;4972099;28;21007;-67
2022/01/19 10:23:05;;;;;;;12.70;11.00;;;19.30;55.60;;;;;;4971101;28;20427;-67
2022/01/19 10:25:48;;;;;;;14.80;11.97;;;20.50;53.60;;;;;;4971630;28;20184;-67
2022/01/19 10:28:14;;;;;;;14.03;12.67;;;20.90;52.60;;;;;;4971126;28;20494;-63
2022/01/19 10:30:39;;;;;;;16.17;14.60;;;20.90;51.60;;;;;;4971697;28;20980;-64
2022/01/19 10:33:05;;;;;;;12.93;11.73;;;20.70;52.00;;;;;;4971641;28;20180;-64
2022/01/19 10:35:35;;;;;;;12.87;11.63;;;20.00;52.90;;;;;;4971837;28;20176;-66
2022/01/19 10:38:24;;;;;;;15.97;14.47;;;19.80;52.70;;;;;;4972269;28;20669;-66
2022/01/19 10:40:55;;;;;;;13.53;12.10;;;18.60;54.80;;;;;;4971270;28;20864;-65
2022/01/19 10:43:42;;;;;;;13.97;12.57;;;18.00;55.40;;;;;;4970794;28;20881;-66
2022/01/19 10:46:27;;;;;;;13.17;11.97;;;18.50;55.40;;;;;;4971736;28;20435;-65
2022/01/19 10:49:11;;;;;;;12.30;11.30;;;19.20;53.60;;;;;;4971438;28;20461;-66
2022/01/19 10:51:44;;;;;;;12.53;11.43;;;20.40;53.00;;;;;;4972158;28;20459;-66
2022/01/19 10:54:11;;;;;;;12.40;11.40;;;20.90;51.70;;;;;;4970709;28;20443;-66
2022/01/19 10:56:39;;;;;;;12.90;11.80;;;21.40;50.60;;;;;;4968178;28;20439;-66
2022/01/19 10:59:08;;;;;;;11.37;10.37;;;21.90;50.60;;;;;;4971640;28;20467;-66
2022/01/19 11:01:39;;;;;;;13.03;11.30;;;22.70;48.50;;;;;;4970605;28;20463;-66
2022/01/19 11:04:38;;;;;;;11.57;10.43;;;22.50;48.60;;;;;;4971510;28;20443;-66
2022/01/19 11:07:05;;;;;;;12.10;11.00;;;23.50;46.80;;;;;;4969412;28;20804;-66
2022/01/19 11:09:34;;;;;;;11.57;10.50;;;24.90;45.00;;;;;;4970420;28;20573;-66
2022/01/19 11:12:06;;;;;;;11.47;10.57;;;24.60;43.80;;;;;;4966155;28;20474;-65
2022/01/19 11:14:35;;;;;;;13.23;11.83;;;23.60;43.20;;;;;;4969028;28;20801;-64
2022/01/19 11:17:01;;;;;;;12.43;11.23;;;22.80;44.60;;;;;;4971551;28;20487;-64
2022/01/19 11:19:27;;;;;;;10.47;9.53;;;24.40;43.70;;;;;;4970210;28;20486;-65
2022/01/19 11:21:58;;;;;;;9.37;8.50;;;26.10;42.30;;;;;;4967696;28;20966;-63
2022/01/19 11:24:45;;;;;;;8.87;8.07;;;26.50;39.80;;;;;;4967096;28;20173;-65
2022/01/19 11:27:12;;;;;;;13.10;11.83;;;24.70;39.90;;;;;;4970087;28;20451;-64
2022/01/19 11:29:40;;;;;;;9.10;8.27;;;23.60;40.70;;;;;;4974674;28;20449;-64
2022/01/19 11:32:18;;;;;;;9.90;8.90;;;22.40;42.40;;;;;;4975181;28;21044;-64
2022/01/19 11:34:50;;;;;;;8.93;8.23;;;22.40;43.10;;;;;;4974817;28;20510;-64
2022/01/19 11:37:34;;;;;;;9.60;8.77;;;23.00;42.40;;;;;;4974972;28;20875;-66
2022/01/19 11:40:10;;;;;;;8.00;7.17;;;23.20;41.60;;;;;;4973876;28;20466;-67
2022/01/19 11:42:36;;;;;;;12.60;9.10;;;22.90;41.20;;;;;;4970545;28;20467;-66
2022/01/19 11:45:08;;;;;;;9.73;8.50;;;21.70;42.90;;;;;;4975092;28;20587;-66
2022/01/19 11:47:34;;;;;;;8.53;7.73;;;22.70;42.10;;;;;;4975125;28;20243;-63
2022/01/19 11:50:01;;;;;;;9.43;8.27;;;22.10;43.00;;;;;;4974432;28;20849;-63
2022/01/19 11:52:49;;;;;;;9.17;8.37;;;23.70;41.70;;;;;;4973760;28;20455;-63
2022/01/19 11:55:24;;;;;;;9.57;8.70;;;25.70;40.20;;;;;;4973950;28;20964;-66
2022/01/19 11:58:14;;;;;;;10.43;8.70;;;23.10;40.70;;;;;;4969132;28;20443;-66
2022/01/19 12:00:43;;;;;;;9.90;9.00;;;23.10;41.90;;;;;;4982045;28;20468;-64
2022/01/19 12:03:19;;;;;;;9.50;8.80;;;23.60;41.60;;;;;;4994616;28;20465;-63
2022/01/19 12:05:45;;;;;;;8.90;8.00;;;23.00;41.70;;;;;;4977090;28;20427;-64
2022/01/19 12:08:19;;;;;;;10.80;8.90;;;24.70;40.40;;;;;;4974392;28;20446;-63
2022/01/19 12:10:48;;;;;;;9.40;8.60;;;25.50;39.60;;;;;;4974393;28;20558;-64
2022/01/19 12:16:11;;;;;;;9.57;8.73;;;26.30;38.50;;;;;;4973635;28;20435;-62
2022/01/19 12:18:41;;;;;;;8.70;8.00;;;26.50;37.60;;;;;;4974021;28;20469;-64
2022/01/19 12:21:09;;;;;;;11.60;10.70;;;27.70;36.40;;;;;;4974221;28;20458;-64
2022/01/19 12:23:37;;;;;;;16.40;14.90;;;27.90;37.00;;;;;;4974316;28;20809;-64
2022/01/19 12:26:06;;;;;;;15.80;14.30;;;26.80;36.90;;;;;;4967095;28;20440;-64
2022/01/19 12:28:38;;;;;;;12.50;11.30;;;27.40;37.70;;;;;;4966069;28;20443;-64
2022/01/19 12:31:22;;;;;;;14.13;12.90;;;26.40;37.60;;;;;;4963736;28;20552;-65
2022/01/19 12:34:02;;;;;;;13.67;12.30;;;26.20;37.90;;;;;;4967871;28;20435;-64
2022/01/19 12:36:46;;;;;;;13.10;12.10;;;24.90;38.60;;;;;;4970591;28;20443;-65
2022/01/19 12:39:30;;;;;;;12.67;11.43;;;22.60;40.80;;;;;;4970468;28;20499;-65
2022/01/19 12:42:17;;;;;;;12.10;11.00;;;21.00;43.00;;;;;;4963130;28;20458;-65
2022/01/19 12:44:55;;;;;;;14.10;12.90;;;19.40;45.00;;;;;;4970853;28;20434;-65
2022/01/19 12:47:29;;;;;;;18.70;12.40;;;17.70;47.40;;;;;;4970585;28;21110;-65
2022/01/19 12:50:03;;;;;;;13.47;12.33;;;15.90;50.50;;;;;;4970208;28;20434;-65
2022/01/19 12:52:33;;;;;;;14.50;11.67;;;14.70;52.90;;;;;;4970608;28;20458;-64
2022/01/19 12:55:13;;;;;;;12.57;11.37;;;14.20;54.30;;;;;;4969220;28;20455;-65
2022/01/19 12:57:40;;;;;;;12.93;11.63;;;14.00;55.40;;;;;;4970568;28;20506;-64
2022/01/19 13:00:11;;;;;;;13.07;11.77;;;14.00;55.90;;;;;;4970795;28;21085;-65
2022/01/19 13:02:36;;;;;;;12.20;10.90;;;14.70;55.90;;;;;;4970866;28;20432;-64
2022/01/19 13:05:08;;;;;;;13.50;10.00;;;16.30;53.80;;;;;;4969510;28;20550;-65
2022/01/19 13:07:37;;;;;;;13.47;12.30;;;16.50;51.80;;;;;;4970252;28;20238;-64
2022/01/19 13:12:56;;;;;;;12.50;11.30;;;14.60;55.00;;;;;;4969287;28;20968;-64
2022/01/19 13:15:43;;;;;;;13.00;11.40;;;13.20;57.20;;;;;;4968320;28;20450;-64
2022/01/19 13:18:10;;;;;;;11.93;10.73;;;12.60;59.60;;;;;;4969383;28;20447;-64
2022/01/19 13:20:36;;;;;;;12.83;11.00;;;12.70;60.70;;;;;;4969761;28;20480;-65
2022/01/19 13:23:04;;;;;;;13.87;10.87;;;12.70;60.60;;;;;;4969673;28;20493;-64
2022/01/19 13:25:32;;;;;;;11.53;10.30;;;12.70;61.30;;;;;;4968706;28;20353;-65
2022/01/19 13:28:00;;;;;;;11.77;10.53;;;12.50;62.20;;;;;;4969606;28;20522;-64
2022/01/19 13:30:28;;;;;;;11.30;10.20;;;11.90;64.30;;;;;;4969832;28;20439;-65
2022/01/19 13:32:55;;;;;;;12.13;10.93;;;11.50;66.40;;;;;;4968265;28;20454;-65
2022/01/19 13:35:22;;;;;;;15.40;10.80;;;11.00;69.70;;;;;;4967297;28;21147;-64
2022/01/19 13:37:58;;;;;;;14.20;10.57;;;10.50;72.20;;;;;;4969156;28;20443;-64
2022/01/19 13:40:31;;;;;;;17.03;11.17;;;10.50;74.00;;;;;;4969337;28;20498;-64
2022/01/19 13:43:03;;;;;;;13.93;9.90;;;10.20;76.70;;;;;;4969388;28;20470;-64
2022/01/19 13:50:43;;;;;;;11.97;10.57;;;10.30;79.90;;;;;;4969238;28;20980;-64
2022/01/19 13:53:09;;;;;;;13.23;11.30;;;10.10;80.30;;;;;;4969294;28;20528;-64
2022/01/19 13:55:36;;;;;;;12.73;11.43;;;10.30;80.80;;;;;;4968830;28;20483;-64
2022/01/19 13:58:12;;;;;;;17.30;12.57;;;9.70;83.30;;;;;;4969340;28;20439;-64
2022/01/19 14:00:48;;;;;;;12.63;10.37;;;9.20;86.80;;;;;;4969282;28;20498;-64
2022/01/19 14:03:13;;;;;;;16.70;13.83;;;9.00;88.80;;;;;;4967387;28;20518;-64
2022/01/19 14:05:45;;;;;;;14.07;11.07;;;8.80;90.40;;;;;;4968268;28;20558;-64
2022/01/19 14:08:11;;;;;;;14.40;10.33;;;8.80;90.70;;;;;;4958277;28;20268;-65
2022/01/19 14:10:48;;;;;;;8.10;7.30;;;8.70;91.50;;;;;;4963585;28;20451;-64
2022/01/19 14:13:23;;;;;;;9.13;8.23;;;8.40;90.40;;;;;;4968876;28;20435;-64